sensor_id;sensor_type;location;lat;lon;timestamp;pressure;altitude;pressure_sealevel;temperature;humidity
29941;BME280;16801;53.562;10.038;2024-02-15T00:03:17;101449.09;;;11.09;0.00
29941;BME280;16801;53.562;10.038;2024-02-15T00:06:39;101460.72;;;11.10;0.00
29941;BME280;16801;53.562;10.038;2024-02-15T00:09:59;101450.66;;;11.12;0.00
29941;BME280;16801;53.562;10.038;2024-02-15T00:13:20;101455.94;;;11.13;0.00
29941;BME280;16801;53.562;10.038;2024-02-15T00:16:42;101463.91;;;11.15;0.00
29941;BME280;16801;53.562;10.038;2024-02-15T00:20:06;101461.09;;;11.16;0.00
29941;BME280;16801;53.562;10.038;2024-02-15T00:23:30;101450.19;;;11.18;0.00
29941;BME280;16801;53.562;10.038;2024-02-15T00:26:51;101457.28;;;11.19;0.00
29941;BME280;16801;53.562;10.038;2024-02-15T00:30:13;101458.88;;;11.21;0.00
29941;BME280;16801;53.562;10.038;2024-02-15T00:33:59;101461.44;;;11.23;0.00
29941;BME280;16801;53.562;10.038;2024-02-15T00:37:21;101456.63;;;11.26;0.00
29941;BME280;16801;53.562;10.038;2024-02-15T00:40:44;101457.38;;;11.28;0.00
29941;BME280;16801;53.562;10.038;2024-02-15T00:44:05;101452.84;;;11.29;0.00
29941;BME280;16801;53.562;10.038;2024-02-15T00:47:26;101463.50;;;11.31;0.00
29941;BME280;16801;53.562;10.038;2024-02-15T00:50:49;101460.69;;;11.32;0.00
29941;BME280;16801;53.562;10.038;2024-02-15T00:54:10;101455.03;;;11.35;0.00
29941;BME280;16801;53.562;10.038;2024-02-15T00:57:33;101461.06;;;11.39;0.00
29941;BME280;16801;53.562;10.038;2024-02-15T01:00:54;101459.06;;;11.41;0.00
29941;BME280;16801;53.562;10.038;2024-02-15T01:04:15;101455.38;;;11.42;0.00
29941;BME280;16801;53.562;10.038;2024-02-15T01:07:36;101460.53;;;11.45;0.00
29941;BME280;16801;53.562;10.038;2024-02-15T01:10:57;101464.84;;;11.47;0.00
29941;BME280;16801;53.562;10.038;2024-02-15T01:14:19;101466.53;;;11.48;0.00
29941;BME280;16801;53.562;10.038;2024-02-15T01:17:39;101468.38;;;11.48;0.00
29941;BME280;16801;53.562;10.038;2024-02-15T01:21:03;101467.13;;;11.52;0.00
29941;BME280;16801;53.562;10.038;2024-02-15T01:24:24;101456.31;;;11.52;0.00
29941;BME280;16801;53.562;10.038;2024-02-15T01:27:45;101457.31;;;11.51;0.00
29941;BME280;16801;53.562;10.038;2024-02-15T01:31:09;101462.00;;;11.49;0.00
29941;BME280;16801;53.562;10.038;2024-02-15T01:34:30;101452.16;;;11.48;0.00
29941;BME280;16801;53.562;10.038;2024-02-15T01:37:52;101454.03;;;11.47;0.00
29941;BME280;16801;53.562;10.038;2024-02-15T01:41:13;101453.16;;;11.47;0.00
29941;BME280;16801;53.562;10.038;2024-02-15T01:44:34;101457.56;;;11.48;0.00
29941;BME280;16801;53.562;10.038;2024-02-15T01:47:58;101459.28;;;11.49;0.00
29941;BME280;16801;53.562;10.038;2024-02-15T01:51:19;101459.28;;;11.49;0.00
29941;BME280;16801;53.562;10.038;2024-02-15T01:54:40;101462.72;;;11.51;0.00
29941;BME280;16801;53.562;10.038;2024-02-15T01:58:01;101462.44;;;11.54;0.00
29941;BME280;16801;53.562;10.038;2024-02-15T02:01:22;101450.69;;;11.55;1.25
29941;BME280;16801;53.562;10.038;2024-02-15T02:04:45;101456.94;;;11.55;3.89
29941;BME280;16801;53.562;10.038;2024-02-15T02:08:06;101442.19;;;11.59;7.18
29941;BME280;16801;53.562;10.038;2024-02-15T02:11:29;101444.75;;;11.61;11.21
29941;BME280;16801;53.562;10.038;2024-02-15T02:14:50;101447.47;;;11.61;15.38
29941;BME280;16801;53.562;10.038;2024-02-15T02:18:12;101446.72;;;11.59;16.87
29941;BME280;16801;53.562;10.038;2024-02-15T02:21:35;101452.13;;;11.59;19.55
29941;BME280;16801;53.562;10.038;2024-02-15T02:25:02;101440.38;;;11.60;25.05
29941;BME280;16801;53.562;10.038;2024-02-15T02:28:24;101446.50;;;11.62;26.66
29941;BME280;16801;53.562;10.038;2024-02-15T02:31:45;101438.78;;;11.57;28.61
29941;BME280;16801;53.562;10.038;2024-02-15T02:35:08;101445.13;;;11.56;29.81
29941;BME280;16801;53.562;10.038;2024-02-15T02:38:31;101450.69;;;11.55;30.19
29941;BME280;16801;53.562;10.038;2024-02-15T02:41:53;101450.91;;;11.52;29.37
29941;BME280;16801;53.562;10.038;2024-02-15T02:45:14;101457.31;;;11.51;27.69
29941;BME280;16801;53.562;10.038;2024-02-15T02:48:35;101456.59;;;11.49;25.72
29941;BME280;16801;53.562;10.038;2024-02-15T02:51:56;101451.34;;;11.47;22.47
29941;BME280;16801;53.562;10.038;2024-02-15T02:55:18;101458.44;;;11.48;18.83
29941;BME280;16801;53.562;10.038;2024-02-15T02:58:40;101443.47;;;11.44;14.88
29941;BME280;16801;53.562;10.038;2024-02-15T03:02:02;101446.91;;;11.46;12.74
29941;BME280;16801;53.562;10.038;2024-02-15T03:05:24;101445.94;;;11.47;10.18
29941;BME280;16801;53.562;10.038;2024-02-15T03:08:45;101444.06;;;11.48;9.04
29941;BME280;16801;53.562;10.038;2024-02-15T03:12:06;101457.31;;;11.51;7.76
29941;BME280;16801;53.562;10.038;2024-02-15T03:15:30;101454.50;;;11.52;5.88
29941;BME280;16801;53.562;10.038;2024-02-15T03:18:52;101463.19;;;11.56;5.60
29941;BME280;16801;53.562;10.038;2024-02-15T03:22:14;101446.72;;;11.59;5.17
29941;BME280;16801;53.562;10.038;2024-02-15T03:25:35;101454.09;;;11.57;4.82
29941;BME280;16801;53.562;10.038;2024-02-15T03:28:56;101459.50;;;11.57;4.70
29941;BME280;16801;53.562;10.038;2024-02-15T03:32:19;101463.31;;;11.54;4.08
29941;BME280;16801;53.562;10.038;2024-02-15T03:35:39;101469.59;;;11.55;2.56
29941;BME280;16801;53.562;10.038;2024-02-15T03:39:01;101466.16;;;11.53;0.67
29941;BME280;16801;53.562;10.038;2024-02-15T03:42:22;101470.56;;;11.54;0.00
29941;BME280;16801;53.562;10.038;2024-02-15T03:45:43;101470.56;;;11.54;0.00
29941;BME280;16801;53.562;10.038;2024-02-15T03:49:05;101469.72;;;11.53;0.00
29941;BME280;16801;53.562;10.038;2024-02-15T03:52:27;101476.69;;;11.56;0.00
29941;BME280;16801;53.562;10.038;2024-02-15T03:55:49;101482.09;;;11.56;0.00
29941;BME280;16801;53.562;10.038;2024-02-15T03:59:12;101473.88;;;11.57;0.00
29941;BME280;16801;53.562;10.038;2024-02-15T04:02:34;101478.16;;;11.60;0.00
29941;BME280;16801;53.562;10.038;2024-02-15T04:05:56;101481.84;;;11.59;0.00
29941;BME280;16801;53.562;10.038;2024-02-15T04:09:17;101478.75;;;11.63;0.00
29941;BME280;16801;53.562;10.038;2024-02-15T04:12:40;101478.53;;;11.66;0.00
29941;BME280;16801;53.562;10.038;2024-02-15T04:16:03;101482.31;;;11.64;0.00
29941;BME280;16801;53.562;10.038;2024-02-15T04:19:24;101483.16;;;11.64;0.00
29941;BME280;16801;53.562;10.038;2024-02-15T04:22:46;101482.94;;;11.67;0.00
29941;BME280;16801;53.562;10.038;2024-02-15T04:26:09;101478.41;;;11.68;0.00
29941;BME280;16801;53.562;10.038;2024-02-15T04:29:32;101480.13;;;11.69;0.00
29941;BME280;16801;53.562;10.038;2024-02-15T04:32:53;101488.06;;;11.70;0.00
29941;BME280;16801;53.562;10.038;2024-02-15T04:36:14;101489.81;;;11.71;0.00
29941;BME280;16801;53.562;10.038;2024-02-15T04:39:40;101495.22;;;11.71;0.00
29941;BME280;16801;53.562;10.038;2024-02-15T04:43:01;101486.97;;;11.73;1.58
29941;BME280;16801;53.562;10.038;2024-02-15T04:46:24;101502.31;;;11.72;3.59
29941;BME280;16801;53.562;10.038;2024-02-15T04:49:45;101497.78;;;11.73;5.98
29941;BME280;16801;53.562;10.038;2024-02-15T04:53:05;101502.06;;;11.75;7.99
29941;BME280;16801;53.562;10.038;2024-02-15T04:56:28;101510.19;;;11.75;10.03
29941;BME280;16801;53.562;10.038;2024-02-15T04:59:48;101508.34;;;11.76;11.97
29941;BME280;16801;53.562;10.038;2024-02-15T05:03:09;101511.03;;;11.76;14.74
29941;BME280;16801;53.562;10.038;2024-02-15T05:06:30;101505.63;;;11.76;17.70
29941;BME280;16801;53.562;10.038;2024-02-15T05:09:51;101517.31;;;11.76;19.49
29941;BME280;16801;53.562;10.038;2024-02-15T05:13:14;101514.47;;;11.78;22.59
29941;BME280;16801;53.562;10.038;2024-02-15T05:16:36;101509.94;;;11.78;25.36
29941;BME280;16801;53.562;10.038;2024-02-15T05:20:08;101500.81;;;11.79;28.94
29941;BME280;16801;53.562;10.038;2024-02-15T05:23:31;101500.97;;;11.78;30.94
29941;BME280;16801;53.562;10.038;2024-02-15T05:26:53;101501.81;;;11.78;31.92
29941;BME280;16801;53.562;10.038;2024-02-15T05:30:16;101499.22;;;11.77;33.82
29941;BME280;16801;53.562;10.038;2024-02-15T05:33:37;101498.41;;;11.76;34.77
29941;BME280;16801;53.562;10.038;2024-02-15T05:37:02;101495.81;;;11.75;35.15
29941;BME280;16801;53.562;10.038;2024-02-15T05:40:23;101490.41;;;11.75;36.44
29941;BME280;16801;53.562;10.038;2024-02-15T05:43:46;101491.13;;;11.77;37.49
29941;BME280;16801;53.562;10.038;2024-02-15T05:47:10;101492.28;;;11.74;36.97
29941;BME280;16801;53.562;10.038;2024-02-15T05:50:31;101486.72;;;11.76;37.55
29941;BME280;16801;53.562;10.038;2024-02-15T05:53:52;101483.16;;;11.75;37.96
29941;BME280;16801;53.562;10.038;2024-02-15T05:57:18;101486.97;;;11.73;37.75
29941;BME280;16801;53.562;10.038;2024-02-15T06:00:39;101494.09;;;11.74;37.14
29941;BME280;16801;53.562;10.038;2024-02-15T06:04:02;101495.94;;;11.73;36.79
29941;BME280;16801;53.562;10.038;2024-02-15T06:07:28;101502.31;;;11.72;36.07
29941;BME280;16801;53.562;10.038;2024-02-15T06:10:49;101495.34;;;11.70;34.73
29941;BME280;16801;53.562;10.038;2024-02-15T06:14:10;101500.84;;;11.68;34.47
29941;BME280;16801;53.562;10.038;2024-02-15T06:17:33;101511.66;;;11.68;32.99
29941;BME280;16801;53.562;10.038;2024-02-15T06:20:56;101511.41;;;11.71;32.67
29941;BME280;16801;53.562;10.038;2024-02-15T06:24:18;101502.72;;;11.68;32.50
29941;BME280;16801;53.562;10.038;2024-02-15T06:27:39;101505.44;;;11.68;32.79
29941;BME280;16801;53.562;10.038;2024-02-15T06:31:02;101507.13;;;11.69;32.09
29941;BME280;16801;53.562;10.038;2024-02-15T06:34:42;101502.81;;;11.66;31.45
29941;BME280;16801;53.562;10.038;2024-02-15T06:38:23;101509.69;;;11.70;31.88
29941;BME280;16801;53.562;10.038;2024-02-15T06:42:02;101508.97;;;11.68;32.72
29941;BME280;16801;53.562;10.038;2024-02-15T06:45:22;101502.44;;;11.71;32.73
29941;BME280;16801;53.562;10.038;2024-02-15T06:48:43;101504.28;;;11.70;33.31
29941;BME280;16801;53.562;10.038;2024-02-15T06:52:05;101500.75;;;11.70;33.01
29941;BME280;16801;53.562;10.038;2024-02-15T06:55:28;101498.16;;;11.68;33.30
29941;BME280;16801;53.562;10.038;2024-02-15T06:58:49;101510.56;;;11.71;33.28
29941;BME280;16801;53.562;10.038;2024-02-15T07:02:10;101507.72;;;11.72;33.80
29941;BME280;16801;53.562;10.038;2024-02-15T07:05:31;101507.81;;;11.82;34.92
29941;BME280;16801;53.562;10.038;2024-02-15T07:08:52;101504.84;;;11.85;36.47
29941;BME280;16801;53.562;10.038;2024-02-15T07:12:17;101513.81;;;11.85;38.49
29941;BME280;16801;53.562;10.038;2024-02-15T07:15:40;101507.09;;;11.80;41.11
29941;BME280;16801;53.562;10.038;2024-02-15T07:19:01;101513.75;;;11.76;43.04
29941;BME280;16801;53.562;10.038;2024-02-15T07:22:23;101523.44;;;11.78;44.54
29941;BME280;16801;53.562;10.038;2024-02-15T07:25:46;101514.47;;;11.78;46.87
29941;BME280;16801;53.562;10.038;2024-02-15T07:29:09;101508.94;;;11.79;49.59
29941;BME280;16801;53.562;10.038;2024-02-15T07:32:31;101513.47;;;11.79;52.33
29941;BME280;16801;53.562;10.038;2024-02-15T07:35:54;101514.34;;;11.79;55.21
29941;BME280;16801;53.562;10.038;2024-02-15T07:39:16;101521.47;;;11.80;59.89
29941;BME280;16801;53.562;10.038;2024-02-15T07:42:43;101510.53;;;11.82;64.22
29941;BME280;16801;53.562;10.038;2024-02-15T07:46:05;101509.53;;;11.83;70.72
29941;BME280;16801;53.562;10.038;2024-02-15T07:49:26;101516.66;;;11.84;74.31
29941;BME280;16801;53.562;10.038;2024-02-15T07:52:48;101530.16;;;11.84;81.40
29941;BME280;16801;53.562;10.038;2024-02-15T07:56:09;101523.28;;;11.91;90.83
29941;BME280;16801;53.562;10.038;2024-02-15T07:59:31;101518.84;;;11.90;100.00
29941;BME280;16801;53.562;10.038;2024-02-15T08:02:53;101527.66;;;11.92;100.00
29941;BME280;16801;53.562;10.038;2024-02-15T08:06:15;101533.81;;;11.94;100.00
29941;BME280;16801;53.562;10.038;2024-02-15T08:09:36;101529.25;;;11.94;100.00
29941;BME280;16801;53.562;10.038;2024-02-15T08:12:57;101530.50;;;11.90;100.00
29941;BME280;16801;53.562;10.038;2024-02-15T08:16:20;101538.47;;;11.92;100.00
29941;BME280;16801;53.562;10.038;2024-02-15T08:19:43;101535.63;;;11.93;100.00
29941;BME280;16801;53.562;10.038;2024-02-15T08:23:04;101527.44;;;11.95;100.00
29941;BME280;16801;53.562;10.038;2024-02-15T08:26:25;101527.16;;;11.98;100.00
29941;BME280;16801;53.562;10.038;2024-02-15T08:29:46;101535.25;;;11.98;100.00
29941;BME280;16801;53.562;10.038;2024-02-15T08:33:07;101521.88;;;11.96;100.00
29941;BME280;16801;53.562;10.038;2024-02-15T08:36:31;101531.31;;;12.02;100.00
29941;BME280;16801;53.562;10.038;2024-02-15T08:39:54;101523.19;;;12.02;100.00
29941;BME280;16801;53.562;10.038;2024-02-15T08:43:16;101518.28;;;12.07;100.00
29941;BME280;16801;53.562;10.038;2024-02-15T08:46:38;101526.97;;;12.11;100.00
29941;BME280;16801;53.562;10.038;2024-02-15T08:49:59;101516.38;;;12.19;100.00
29941;BME280;16801;53.562;10.038;2024-02-15T08:53:21;101515.91;;;12.14;100.00
29941;BME280;16801;53.562;10.038;2024-02-15T08:56:42;101514.91;;;12.15;100.00
29941;BME280;16801;53.562;10.038;2024-02-15T09:00:04;101505.16;;;12.23;100.00
29941;BME280;16801;53.562;10.038;2024-02-15T09:03:29;101510.66;;;12.33;100.00
29941;BME280;16801;53.562;10.038;2024-02-15T09:06:50;101505.25;;;12.33;100.00
29941;BME280;16801;53.562;10.038;2024-02-15T09:10:14;101509.19;;;12.29;100.00
29941;BME280;16801;53.562;10.038;2024-02-15T09:13:37;101509.91;;;12.31;100.00
29941;BME280;16801;53.562;10.038;2024-02-15T09:16:58;101515.91;;;12.34;100.00
29941;BME280;16801;53.562;10.038;2024-02-15T09:20:27;101519.75;;;12.32;100.00
29941;BME280;16801;53.562;10.038;2024-02-15T09:23:48;101517.75;;;12.34;100.00
29941;BME280;16801;53.562;10.038;2024-02-15T09:27:11;101507.66;;;12.56;100.00
29941;BME280;16801;53.562;10.038;2024-02-15T09:30:32;101509.81;;;12.62;100.00
29941;BME280;16801;53.562;10.038;2024-02-15T09:33:55;101513.06;;;12.56;100.00
29941;BME280;16801;53.562;10.038;2024-02-15T09:37:17;101511.69;;;12.41;100.00
29941;BME280;16801;53.562;10.038;2024-02-15T09:40:38;101518.34;;;12.37;100.00
29941;BME280;16801;53.562;10.038;2024-02-15T09:44:01;101517.22;;;12.40;100.00
29941;BME280;16801;53.562;10.038;2024-02-15T09:47:23;101517.50;;;12.37;100.00
29941;BME280;16801;53.562;10.038;2024-02-15T09:50:45;101512.09;;;12.37;100.00
29941;BME280;16801;53.562;10.038;2024-02-15T09:54:06;101517.63;;;12.35;100.00
29941;BME280;16801;53.562;10.038;2024-02-15T09:57:29;101510.97;;;12.39;100.00
29941;BME280;16801;53.562;10.038;2024-02-15T10:00:53;101516.91;;;12.33;100.00
29941;BME280;16801;53.562;10.038;2024-02-15T10:04:14;101519.22;;;12.38;100.00
29941;BME280;16801;53.562;10.038;2024-02-15T10:07:35;101522.50;;;12.41;100.00
29941;BME280;16801;53.562;10.038;2024-02-15T10:11:05;101514.28;;;12.43;100.00
29941;BME280;16801;53.562;10.038;2024-02-15T10:14:31;101526.34;;;12.39;100.00
29941;BME280;16801;53.562;10.038;2024-02-15T10:17:55;101527.66;;;12.44;100.00
29941;BME280;16801;53.562;10.038;2024-02-15T10:21:24;101525.34;;;12.40;100.00
29941;BME280;16801;53.562;10.038;2024-02-15T10:24:45;101526.94;;;12.42;100.00
29941;BME280;16801;53.562;10.038;2024-02-15T10:28:08;101529.25;;;12.47;100.00
29941;BME280;16801;53.562;10.038;2024-02-15T10:31:29;101525.72;;;12.56;100.00
29941;BME280;16801;53.562;10.038;2024-02-15T10:34:53;101528.53;;;12.45;100.00
29941;BME280;16801;53.562;10.038;2024-02-15T10:38:14;101522.44;;;12.52;100.00
29941;BME280;16801;53.562;10.038;2024-02-15T10:41:36;101515.91;;;12.55;100.00
29941;BME280;16801;53.562;10.038;2024-02-15T10:44:58;101520.06;;;12.59;100.00
29941;BME280;16801;53.562;10.038;2024-02-15T10:48:21;101513.34;;;12.53;100.00
29941;BME280;16801;53.562;10.038;2024-02-15T10:51:44;101509.25;;;12.59;100.00
29941;BME280;16801;53.562;10.038;2024-02-15T10:55:08;101500.66;;;12.74;100.00
29941;BME280;16801;53.562;10.038;2024-02-15T10:58:33;101500.94;;;12.81;100.00
29941;BME280;16801;53.562;10.038;2024-02-15T11:01:59;101501.09;;;12.79;100.00
29941;BME280;16801;53.562;10.038;2024-02-15T11:05:24;101492.09;;;12.79;100.00
29941;BME280;16801;53.562;10.038;2024-02-15T11:08:47;101494.97;;;12.77;100.00
29941;BME280;16801;53.562;10.038;2024-02-15T11:12:08;101490.56;;;12.76;100.00
29941;BME280;16801;53.562;10.038;2024-02-15T11:15:41;101491.38;;;12.77;100.00
29941;BME280;16801;53.562;10.038;2024-02-15T11:19:05;101490.97;;;12.72;100.00
29941;BME280;16801;53.562;10.038;2024-02-15T11:22:29;101483.81;;;12.71;100.00
29941;BME280;16801;53.562;10.038;2024-02-15T11:25:52;101490.81;;;12.73;100.00
29941;BME280;16801;53.562;10.038;2024-02-15T11:29:48;101484.69;;;12.71;100.00
29941;BME280;16801;53.562;10.038;2024-02-15T11:33:25;101478.69;;;12.68;100.00
29941;BME280;16801;53.562;10.038;2024-02-15T11:36:48;101476.00;;;12.68;100.00
29941;BME280;16801;53.562;10.038;2024-02-15T11:40:13;101472.28;;;12.69;100.00
29941;BME280;16801;53.562;10.038;2024-02-15T11:43:52;101476.09;;;12.66;100.00
29941;BME280;16801;53.562;10.038;2024-02-15T11:47:16;101462.88;;;12.63;100.00
29941;BME280;16801;53.562;10.038;2024-02-15T11:50:40;101462.88;;;12.63;100.00
29941;BME280;16801;53.562;10.038;2024-02-15T11:54:06;101472.66;;;12.64;100.00
29941;BME280;16801;53.562;10.038;2024-02-15T11:57:27;101456.97;;;12.58;100.00
29941;BME280;16801;53.562;10.038;2024-02-15T12:01:00;101452.75;;;12.65;100.00
29941;BME280;16801;53.562;10.038;2024-02-15T12:04:39;101456.91;;;12.69;100.00
29941;BME280;16801;53.562;10.038;2024-02-15T12:08:17;101454.16;;;12.60;100.00
29941;BME280;16801;53.562;10.038;2024-02-15T12:11:57;101452.03;;;12.63;100.00
29941;BME280;16801;53.562;10.038;2024-02-15T12:15:36;101454.47;;;12.66;100.00
29941;BME280;16801;53.562;10.038;2024-02-15T12:19:16;101446.09;;;12.69;100.00
29941;BME280;16801;53.562;10.038;2024-02-15T12:22:40;101446.09;;;12.69;100.00
29941;BME280;16801;53.562;10.038;2024-02-15T12:26:01;101438.94;;;12.68;100.00
29941;BME280;16801;53.562;10.038;2024-02-15T12:29:23;101437.66;;;12.63;100.00
29941;BME280;16801;53.562;10.038;2024-02-15T12:32:44;101439.09;;;12.67;100.00
29941;BME280;16801;53.562;10.038;2024-02-15T12:36:07;101439.50;;;12.62;100.00
29941;BME280;16801;53.562;10.038;2024-02-15T12:39:28;101439.63;;;12.61;100.00
29941;BME280;16801;53.562;10.038;2024-02-15T12:42:53;101439.72;;;12.50;100.00
29941;BME280;16801;53.562;10.038;2024-02-15T12:46:18;101435.75;;;12.54;100.00
29941;BME280;16801;53.562;10.038;2024-02-15T12:49:39;101431.91;;;12.56;100.00
29941;BME280;16801;53.562;10.038;2024-02-15T12:53:03;101433.34;;;12.51;100.00
29941;BME280;16801;53.562;10.038;2024-02-15T12:56:25;101422.28;;;12.63;100.00
29941;BME280;16801;53.562;10.038;2024-02-15T12:59:46;101427.41;;;12.66;100.00
29941;BME280;16801;53.562;10.038;2024-02-15T13:03:08;101421.56;;;12.61;100.00
29941;BME280;16801;53.562;10.038;2024-02-15T13:06:29;101431.06;;;12.56;100.00
29941;BME280;16801;53.562;10.038;2024-02-15T13:09:51;101425.06;;;12.52;100.00
29941;BME280;16801;53.562;10.038;2024-02-15T13:13:12;101413.72;;;12.58;100.00
29941;BME280;16801;53.562;10.038;2024-02-15T13:16:35;101422.13;;;12.55;100.00
29941;BME280;16801;53.562;10.038;2024-02-15T13:19:56;101417.50;;;12.46;100.00
29941;BME280;16801;53.562;10.038;2024-02-15T13:23:24;101412.09;;;12.46;100.00
29941;BME280;16801;53.562;10.038;2024-02-15T13:26:47;101419.88;;;12.40;100.00
29941;BME280;16801;53.562;10.038;2024-02-15T13:30:09;101414.22;;;12.43;100.00
29941;BME280;16801;53.562;10.038;2024-02-15T13:33:30;101409.53;;;12.45;100.00
29941;BME280;16801;53.562;10.038;2024-02-15T13:36:52;101405.38;;;12.41;100.00
29941;BME280;16801;53.562;10.038;2024-02-15T13:40:15;101418.91;;;12.41;100.00
29941;BME280;16801;53.562;10.038;2024-02-15T13:43:43;101406.31;;;12.60;100.00
29941;BME280;16801;53.562;10.038;2024-02-15T13:47:04;101406.22;;;12.71;100.00
29941;BME280;16801;53.562;10.038;2024-02-15T13:50:25;101400.59;;;12.54;100.00
29941;BME280;16801;53.562;10.038;2024-02-15T13:53:51;101391.03;;;12.50;100.00
29941;BME280;16801;53.562;10.038;2024-02-15T13:57:21;101391.19;;;12.48;100.00
29941;BME280;16801;53.562;10.038;2024-02-15T14:00:50;101389.50;;;12.57;100.00
29941;BME280;16801;53.562;10.038;2024-02-15T14:04:25;101391.66;;;12.53;100.00
29941;BME280;16801;53.562;10.038;2024-02-15T14:07:58;101392.22;;;12.57;100.00
29941;BME280;16801;53.562;10.038;2024-02-15T14:11:22;101389.91;;;12.52;100.00
29941;BME280;16801;53.562;10.038;2024-02-15T14:14:43;101388.50;;;12.58;100.00
29941;BME280;16801;53.562;10.038;2024-02-15T14:18:12;101387.66;;;12.57;100.00
29941;BME280;16801;53.562;10.038;2024-02-15T14:21:33;101401.19;;;12.57;100.00
29941;BME280;16801;53.562;10.038;2024-02-15T14:24:57;101387.94;;;12.54;100.00
29941;BME280;16801;53.562;10.038;2024-02-15T14:28:18;101389.97;;;12.62;100.00
29941;BME280;16801;53.562;10.038;2024-02-15T14:31:39;101379.25;;;12.60;100.00
29941;BME280;16801;53.562;10.038;2024-02-15T14:35:19;101380.28;;;12.59;100.00
29941;BME280;16801;53.562;10.038;2024-02-15T14:38:41;101375.84;;;12.58;100.00
29941;BME280;16801;53.562;10.038;2024-02-15T14:42:02;101370.44;;;12.58;100.00
29941;BME280;16801;53.562;10.038;2024-02-15T14:45:23;101373.59;;;12.63;100.00
29941;BME280;16801;53.562;10.038;2024-02-15T14:48:44;101377.69;;;12.58;100.00
29941;BME280;16801;53.562;10.038;2024-02-15T14:52:08;101375.84;;;12.58;100.00
29941;BME280;16801;53.562;10.038;2024-02-15T14:55:29;101364.91;;;12.60;100.00
29941;BME280;16801;53.562;10.038;2024-02-15T14:58:50;101376.84;;;12.57;100.00
29941;BME280;16801;53.562;10.038;2024-02-15T15:02:12;101377.41;;;12.51;100.00
29941;BME280;16801;53.562;10.038;2024-02-15T15:05:34;101372.72;;;12.53;100.00
29941;BME280;16801;53.562;10.038;2024-02-15T15:09:14;101367.56;;;12.50;100.00
29941;BME280;16801;53.562;10.038;2024-02-15T15:12:52;101367.31;;;12.53;100.00
29941;BME280;16801;53.562;10.038;2024-02-15T15:16:13;101365.56;;;12.52;100.00
29941;BME280;16801;53.562;10.038;2024-02-15T15:19:37;101366.88;;;12.58;100.00
29941;BME280;16801;53.562;10.038;2024-02-15T15:22:58;101367.00;;;12.56;100.00
29941;BME280;16801;53.562;10.038;2024-02-15T15:26:22;101373.13;;;12.58;100.00
29941;BME280;16801;53.562;10.038;2024-02-15T15:29:42;101369.72;;;12.56;100.00
29941;BME280;16801;53.562;10.038;2024-02-15T15:33:04;101369.72;;;12.56;100.00
29941;BME280;16801;53.562;10.038;2024-02-15T15:36:26;101367.31;;;12.53;100.00
29941;BME280;16801;53.562;10.038;2024-02-15T15:39:47;101368.13;;;12.54;100.00
29941;BME280;16801;53.562;10.038;2024-02-15T15:43:10;101367.41;;;12.52;100.00
29941;BME280;16801;53.562;10.038;2024-02-15T15:46:34;101366.16;;;12.56;100.00
29941;BME280;16801;53.562;10.038;2024-02-15T15:49:55;101372.41;;;12.56;100.00
29941;BME280;16801;53.562;10.038;2024-02-15T15:53:19;101372.41;;;12.56;100.00
29941;BME280;16801;53.562;10.038;2024-02-15T15:56:40;101376.84;;;12.57;100.00
29941;BME280;16801;53.562;10.038;2024-02-15T16:00:03;101366.88;;;12.58;100.00
29941;BME280;16801;53.562;10.038;2024-02-15T16:03:25;101366.59;;;12.61;100.00
29941;BME280;16801;53.562;10.038;2024-02-15T16:06:47;101369.31;;;12.61;100.00
29941;BME280;16801;53.562;10.038;2024-02-15T16:10:08;101370.91;;;12.63;100.00
29941;BME280;16801;53.562;10.038;2024-02-15T16:13:30;101366.59;;;12.61;100.00
29941;BME280;16801;53.562;10.038;2024-02-15T16:17:26;101375.19;;;12.66;100.00
29941;BME280;16801;53.562;10.038;2024-02-15T16:20:49;101376.44;;;12.62;100.00
29941;BME280;16801;53.562;10.038;2024-02-15T16:24:10;101383.56;;;12.63;100.00
29941;BME280;16801;53.562;10.038;2024-02-15T16:27:31;101378.16;;;12.63;100.00
29941;BME280;16801;53.562;10.038;2024-02-15T16:30:52;101378.72;;;12.66;100.00
29941;BME280;16801;53.562;10.038;2024-02-15T16:34:31;101371.47;;;12.67;100.00
29941;BME280;16801;53.562;10.038;2024-02-15T16:43:10;101371.75;;;12.64;100.00
29941;BME280;16801;53.562;10.038;2024-02-15T16:46:32;101378.00;;;12.64;100.00
29941;BME280;16801;53.562;10.038;2024-02-15T16:49:57;101379.88;;;12.64;100.00
29941;BME280;16801;53.562;10.038;2024-02-15T16:53:19;101368.34;;;12.62;100.00
29941;BME280;16801;53.562;10.038;2024-02-15T16:56:40;101376.44;;;12.62;100.00
29941;BME280;16801;53.562;10.038;2024-02-15T17:00:03;101374.97;;;12.58;100.00
29941;BME280;16801;53.562;10.038;2024-02-15T17:03:25;101373.53;;;12.54;100.00
29941;BME280;16801;53.562;10.038;2024-02-15T17:06:47;101378.22;;;12.52;100.00
29941;BME280;16801;53.562;10.038;2024-02-15T17:10:09;101370.97;;;12.52;100.00
29941;BME280;16801;53.562;10.038;2024-02-15T17:13:30;101375.13;;;12.56;100.00
29941;BME280;16801;53.562;10.038;2024-02-15T17:16:51;101380.50;;;12.47;100.00
29941;BME280;16801;53.562;10.038;2024-02-15T17:20:14;101381.09;;;12.50;100.00
29941;BME280;16801;53.562;10.038;2024-02-15T17:23:36;101391.91;;;12.50;100.00
29941;BME280;16801;53.562;10.038;2024-02-15T17:27:03;101390.72;;;12.43;100.00
29941;BME280;16801;53.562;10.038;2024-02-15T17:30:24;101393.88;;;12.48;100.00
29941;BME280;16801;53.562;10.038;2024-02-15T17:33:45;101388.00;;;12.43;100.00